createdAt,value
2023-05-05T00:01:24.952Z,10.99
2023-05-05T00:03:53.919Z,10.59
2023-05-05T00:06:22.775Z,10.77
2023-05-05T00:08:51.611Z,10.50
2023-05-05T00:11:20.751Z,10.58
2023-05-05T00:13:49.075Z,10.62
2023-05-05T00:16:17.813Z,10.71
2023-05-05T00:18:46.623Z,10.44
2023-05-05T00:21:15.283Z,10.64
2023-05-05T00:23:43.942Z,10.99
2023-05-05T00:26:12.598Z,10.71
2023-05-05T00:28:41.350Z,10.37
2023-05-05T00:31:10.059Z,10.65
2023-05-05T00:33:38.662Z,10.89
2023-05-05T00:36:08.164Z,11.10
2023-05-05T00:38:36.742Z,10.99
2023-05-05T00:41:05.322Z,10.90
2023-05-05T00:43:33.930Z,10.90
2023-05-05T00:46:27.804Z,11.18
2023-05-05T00:48:57.371Z,11.46
2023-05-05T00:51:27.254Z,11.41
2023-05-05T00:53:56.746Z,11.89
2023-05-05T00:56:26.517Z,11.56
2023-05-05T00:58:56.505Z,11.33
2023-05-05T01:01:25.440Z,10.95
2023-05-05T01:03:54.115Z,10.99
2023-05-05T01:06:44.582Z,10.94
2023-05-05T01:09:44.204Z,11.19
2023-05-05T01:12:45.415Z,11.07
2023-05-05T01:16:02.279Z,11.04
2023-05-05T01:18:43.899Z,10.89
2023-05-05T01:21:21.318Z,10.82
2023-05-05T01:24:09.376Z,10.98
2023-05-05T01:27:08.090Z,10.93
2023-05-05T01:29:53.058Z,10.79
2023-05-05T01:32:28.033Z,10.79
2023-05-05T01:35:05.959Z,10.81
2023-05-05T01:37:42.966Z,10.85
2023-05-05T01:40:14.281Z,10.73
2023-05-05T01:42:45.257Z,11.03
2023-05-05T01:45:16.186Z,10.98
2023-05-05T01:47:46.329Z,11.18
2023-05-05T01:50:16.990Z,11.18
2023-05-05T01:52:47.341Z,11.67
2023-05-05T01:55:19.344Z,11.84
2023-05-05T01:57:51.287Z,12.08
2023-05-05T02:00:21.959Z,12.97
2023-05-05T02:02:51.939Z,12.05
2023-05-05T02:05:24.117Z,11.71
2023-05-05T02:07:54.743Z,11.82
2023-05-05T02:10:22.963Z,12.35
2023-05-05T02:12:53.748Z,12.13
2023-05-05T02:15:24.081Z,12.13
2023-05-05T02:17:54.449Z,12.07
2023-05-05T02:20:25.736Z,12.73
2023-05-05T02:22:55.302Z,13.04
2023-05-05T02:25:27.453Z,12.64
2023-05-05T02:27:57.960Z,13.29
2023-05-05T02:30:28.481Z,12.68
2023-05-05T02:33:01.731Z,12.81
2023-05-05T02:35:40.459Z,12.58
2023-05-05T02:38:14.891Z,12.58
2023-05-05T02:40:46.507Z,13.55
2023-05-05T02:43:21.081Z,12.84
2023-05-05T02:45:49.387Z,12.85
2023-05-05T02:48:18.072Z,13.40
2023-05-05T02:50:46.689Z,13.37
2023-05-05T02:53:15.570Z,13.81
2023-05-05T02:56:03.398Z,13.83
2023-05-05T02:58:43.014Z,14.19
2023-05-05T03:01:12.053Z,14.44
2023-05-05T03:03:45.672Z,14.59
2023-05-05T03:06:22.293Z,14.74
2023-05-05T03:09:15.421Z,14.76
2023-05-05T03:11:59.174Z,14.93
2023-05-05T03:14:33.272Z,15.11
2023-05-05T03:17:03.785Z,15.18
2023-05-05T03:19:33.242Z,15.36
2023-05-05T03:22:02.063Z,15.14
2023-05-05T03:24:30.796Z,15.42
2023-05-05T03:27:00.396Z,15.50
2023-05-05T03:29:30.938Z,15.40
2023-05-05T03:32:00.202Z,15.63
2023-05-05T03:34:28.795Z,15.97
2023-05-05T03:36:57.670Z,15.94
2023-05-05T03:39:26.248Z,15.96
2023-05-05T03:41:54.689Z,15.98
2023-05-05T03:44:23.875Z,15.89
2023-05-05T03:46:52.214Z,15.95
2023-05-05T03:49:20.832Z,15.97
2023-05-05T03:51:49.076Z,16.08
2023-05-05T03:54:18.524Z,16.34
2023-05-05T03:56:47.994Z,16.21
2023-05-05T03:59:16.987Z,16.28
2023-05-05T04:01:47.681Z,16.08
2023-05-05T04:04:17.272Z,16.30
2023-05-05T04:06:45.457Z,16.54
2023-05-05T04:09:14.123Z,16.48
2023-05-05T04:11:42.754Z,16.53
2023-05-05T04:14:11.469Z,16.68
2023-05-05T04:16:40.100Z,16.84
2023-05-05T04:19:08.802Z,16.91
2023-05-05T04:21:37.615Z,16.21
2023-05-05T04:24:06.500Z,16.70
2023-05-05T04:26:35.068Z,16.50
2023-05-05T04:29:03.723Z,16.78
2023-05-05T04:31:33.372Z,16.45
2023-05-05T04:34:02.135Z,16.56
2023-05-05T04:36:30.789Z,16.88
2023-05-05T04:38:59.348Z,16.34
2023-05-05T04:41:30.111Z,16.95
2023-05-05T04:43:58.934Z,16.72
2023-05-05T04:46:27.569Z,16.87
2023-05-05T04:48:56.228Z,16.70
2023-05-05T04:51:24.851Z,16.72
2023-05-05T04:53:53.129Z,16.65
2023-05-05T04:56:21.424Z,16.76
2023-05-05T04:58:52.183Z,16.78
2023-05-05T05:01:20.167Z,16.70
2023-05-05T05:03:48.847Z,16.71
2023-05-05T05:06:18.015Z,16.70
2023-05-05T05:08:46.602Z,17.02
2023-05-05T05:11:15.262Z,16.76
2023-05-05T05:13:43.878Z,17.05
2023-05-05T05:16:12.947Z,16.93
2023-05-05T05:18:41.648Z,17.17
2023-05-05T05:21:10.280Z,17.40
2023-05-05T05:23:38.946Z,17.62
2023-05-05T05:26:07.877Z,17.56
2023-05-05T05:28:36.453Z,17.51
2023-05-05T05:31:06.259Z,17.89
2023-05-05T05:33:34.933Z,18.01
2023-05-05T05:36:03.220Z,17.72
2023-05-05T05:38:31.832Z,18.11
2023-05-05T05:41:00.396Z,18.25
2023-05-05T05:43:28.998Z,18.33
2023-05-05T05:45:57.799Z,18.51
2023-05-05T05:48:29.811Z,18.01
2023-05-05T05:50:58.619Z,18.29
2023-05-05T05:53:27.316Z,18.33
2023-05-05T05:55:55.951Z,18.49
2023-05-05T05:58:24.720Z,18.58
2023-05-05T06:00:53.373Z,18.75
2023-05-05T06:03:23.206Z,18.52
2023-05-05T06:05:53.187Z,18.28
2023-05-05T06:08:23.051Z,18.35
2023-05-05T06:10:53.244Z,18.46
2023-05-05T06:13:21.988Z,18.25
2023-05-05T06:15:50.737Z,18.28
2023-05-05T06:18:19.490Z,18.83
2023-05-05T06:20:51.593Z,18.77
2023-05-05T06:23:20.524Z,18.93
2023-05-05T06:25:49.375Z,19.16
2023-05-05T06:28:17.910Z,18.95
2023-05-05T06:30:46.524Z,19.07
2023-05-05T06:33:14.990Z,19.38
2023-05-05T06:35:43.273Z,19.41
2023-05-05T06:38:12.109Z,19.36
2023-05-05T06:40:40.734Z,19.65
2023-05-05T06:43:09.621Z,19.66
2023-05-05T06:45:38.306Z,19.44
2023-05-05T06:48:08.007Z,19.47
2023-05-05T06:50:36.296Z,19.45
2023-05-05T06:53:04.916Z,19.75
2023-05-05T06:55:33.207Z,19.83
2023-05-05T06:58:01.854Z,20.00
2023-05-05T07:00:30.765Z,20.00
2023-05-05T07:03:00.394Z,20.11
2023-05-05T07:05:30.280Z,20.15
2023-05-05T07:08:00.364Z,19.97
2023-05-05T07:10:29.531Z,20.11
2023-05-05T07:12:58.227Z,19.97
2023-05-05T07:15:29.276Z,20.16
2023-05-05T07:17:58.863Z,20.35
2023-05-05T07:20:27.793Z,20.35
2023-05-05T07:22:55.928Z,20.48
2023-05-05T07:25:24.652Z,20.21
2023-05-05T07:27:53.279Z,20.63
2023-05-05T07:30:22.089Z,20.58
2023-05-05T07:32:52.539Z,20.83
2023-05-05T07:35:21.202Z,21.01
2023-05-05T07:37:49.756Z,21.15
2023-05-05T07:40:18.129Z,21.06
2023-05-05T07:42:48.765Z,20.94
2023-05-05T07:45:17.392Z,21.07
2023-05-05T07:47:46.055Z,20.99
2023-05-05T07:50:14.948Z,21.13
2023-05-05T07:52:50.018Z,21.35
2023-05-05T07:55:24.975Z,21.55
2023-05-05T07:57:53.414Z,21.65
2023-05-05T08:00:22.664Z,21.49
2023-05-05T08:02:51.366Z,21.49
2023-05-05T08:05:19.948Z,21.86
2023-05-05T08:07:48.543Z,21.65
2023-05-05T08:10:17.336Z,21.76
2023-05-05T08:12:45.967Z,21.99
2023-05-05T08:15:14.696Z,22.11
2023-05-05T08:17:54.312Z,22.04
2023-05-05T08:20:23.482Z,22.03
2023-05-05T08:22:53.013Z,22.13
2023-05-05T08:25:21.607Z,21.86
2023-05-05T08:27:50.229Z,22.28
2023-05-05T08:30:22.136Z,22.37
2023-05-05T08:32:50.342Z,22.28
2023-05-05T08:35:18.937Z,22.57
2023-05-05T08:37:47.273Z,22.70
2023-05-05T08:40:16.301Z,22.98
2023-05-05T08:42:47.172Z,23.45
2023-05-05T08:45:16.206Z,23.19
2023-05-05T08:47:45.005Z,23.40
2023-05-05T08:50:13.979Z,23.49
2023-05-05T08:52:48.652Z,23.52
2023-05-05T08:55:22.345Z,23.46
2023-05-05T08:57:59.851Z,23.87
2023-05-05T09:00:29.315Z,23.96
2023-05-05T09:03:02.705Z,23.99
2023-05-05T09:05:31.371Z,24.32
2023-05-05T09:08:00.574Z,24.12
2023-05-05T09:10:30.776Z,24.40
2023-05-05T09:12:59.451Z,24.65
2023-05-05T09:15:29.638Z,25.06
2023-05-05T09:18:03.140Z,25.10
2023-05-05T09:20:39.367Z,25.39
2023-05-05T09:23:22.152Z,25.45
2023-05-05T09:26:05.855Z,25.92
2023-05-05T09:28:34.535Z,26.14
2023-05-05T09:31:18.094Z,25.97
2023-05-05T09:33:47.708Z,26.06
2023-05-05T09:36:16.323Z,26.08
2023-05-05T09:39:04.785Z,25.81
2023-05-05T09:41:44.638Z,26.27
2023-05-05T09:44:18.819Z,26.20
2023-05-05T09:46:56.602Z,26.44
2023-05-05T09:49:26.648Z,26.66
2023-05-05T09:51:56.347Z,26.91
2023-05-05T09:54:28.669Z,26.92
2023-05-05T09:56:58.680Z,27.59
2023-05-05T09:59:27.927Z,27.09
2023-05-05T10:02:13.220Z,27.44
2023-05-05T10:04:42.195Z,27.53
2023-05-05T10:07:25.973Z,27.32
2023-05-05T10:09:54.541Z,27.87
2023-05-05T10:12:23.323Z,28.04
2023-05-05T10:14:57.552Z,28.19
2023-05-05T10:17:29.698Z,28.33
2023-05-05T10:20:00.768Z,28.32
2023-05-05T10:22:34.925Z,28.09
2023-05-05T10:25:04.994Z,28.13
2023-05-05T10:27:41.441Z,28.34
2023-05-05T10:30:25.534Z,28.52
2023-05-05T10:33:13.195Z,28.49
2023-05-05T10:35:48.991Z,28.82
2023-05-05T10:38:19.060Z,28.88
2023-05-05T10:40:50.111Z,28.75
2023-05-05T10:43:19.271Z,29.10
2023-05-05T10:45:48.219Z,29.29
2023-05-05T10:48:29.421Z,28.93
2023-05-05T10:51:18.855Z,29.40
2023-05-05T10:54:05.815Z,29.95
2023-05-05T10:56:37.426Z,30.02
2023-05-05T10:59:38.515Z,29.92
2023-05-05T11:02:30.829Z,29.90
2023-05-05T11:05:18.939Z,30.19
2023-05-05T11:07:48.548Z,30.39
2023-05-05T11:10:19.248Z,30.69
2023-05-05T11:13:11.026Z,30.24
2023-05-05T11:15:39.687Z,30.54
2023-05-05T11:18:08.607Z,30.68
2023-05-05T11:20:37.313Z,30.48
2023-05-05T11:23:06.973Z,30.55
2023-05-05T11:25:38.627Z,30.65
2023-05-05T11:28:11.335Z,30.54
2023-05-05T11:31:00.230Z,30.37
2023-05-05T11:33:33.202Z,30.58
2023-05-05T11:36:04.243Z,30.85
2023-05-05T11:39:01.580Z,31.55
2023-05-05T11:41:35.788Z,31.24
2023-05-05T11:44:16.064Z,31.37
2023-05-05T11:46:54.397Z,31.69
2023-05-05T11:49:36.681Z,31.99
2023-05-05T11:52:16.090Z,31.90
2023-05-05T11:54:51.401Z,31.91
2023-05-05T11:57:28.449Z,32.07
2023-05-05T12:00:01.667Z,32.62
2023-05-05T12:02:32.434Z,32.54
2023-05-05T12:05:02.232Z,32.41
2023-05-05T12:07:34.936Z,32.67
2023-05-05T12:10:03.863Z,33.07
2023-05-05T12:12:41.892Z,33.43
2023-05-05T12:15:11.253Z,33.31
2023-05-05T12:17:47.177Z,33.50
2023-05-05T12:20:15.985Z,33.76
2023-05-05T12:22:45.256Z,34.13
2023-05-05T12:25:13.924Z,33.74
2023-05-05T12:27:42.987Z,34.10
2023-05-05T12:30:18.104Z,33.58
2023-05-05T12:32:48.654Z,33.84
2023-05-05T12:35:18.232Z,33.45
2023-05-05T12:37:48.258Z,34.04
2023-05-05T12:40:45.120Z,34.28
2023-05-05T12:43:32.850Z,34.47
2023-05-05T12:46:09.739Z,34.23
2023-05-05T12:48:40.679Z,34.30
2023-05-05T12:51:18.302Z,34.28
2023-05-05T12:53:48.732Z,34.72
2023-05-05T12:56:46.259Z,35.09
2023-05-05T12:59:24.614Z,34.97
2023-05-05T13:01:55.806Z,35.07
2023-05-05T13:04:29.355Z,34.74
2023-05-05T13:07:13.025Z,34.75
2023-05-05T13:09:42.109Z,35.09
2023-05-05T13:12:13.358Z,34.45
2023-05-05T13:14:42.669Z,34.61
2023-05-05T13:17:12.970Z,34.58
2023-05-05T13:19:47.625Z,34.87
2023-05-05T13:22:16.023Z,34.92
2023-05-05T13:24:51.756Z,34.93
2023-05-05T13:27:21.959Z,34.99
2023-05-05T13:29:50.663Z,34.55
2023-05-05T13:32:19.234Z,34.32
2023-05-05T13:34:48.039Z,34.48
2023-05-05T13:37:16.902Z,34.21
2023-05-05T13:39:48.355Z,34.28
2023-05-05T13:42:16.899Z,34.05
2023-05-05T13:44:45.585Z,33.90
2023-05-05T13:47:15.072Z,33.32
2023-05-05T13:49:44.657Z,33.65
2023-05-05T13:52:13.326Z,33.32
2023-05-05T13:54:42.205Z,33.25
2023-05-05T13:57:12.479Z,33.29
2023-05-05T13:59:42.073Z,33.86
2023-05-05T14:02:14.196Z,32.79
2023-05-05T14:04:42.903Z,32.99
2023-05-05T14:07:11.608Z,32.90
2023-05-05T14:09:40.247Z,32.51
2023-05-05T14:12:08.417Z,32.40
2023-05-05T14:14:37.051Z,32.44
2023-05-05T14:17:05.850Z,31.99
2023-05-05T14:19:34.807Z,32.25
2023-05-05T14:22:02.721Z,31.79
2023-05-05T14:24:31.385Z,31.54
2023-05-05T14:27:01.245Z,31.54
2023-05-05T14:29:29.460Z,31.53
2023-05-05T14:31:57.914Z,31.54
2023-05-05T14:34:25.988Z,31.52
2023-05-05T14:36:55.586Z,31.07
2023-05-05T14:39:24.427Z,31.26
2023-05-05T14:41:53.010Z,31.15
2023-05-05T14:44:21.830Z,31.06
2023-05-05T14:46:51.105Z,31.25
2023-05-05T14:49:19.851Z,30.16
2023-05-05T14:51:48.743Z,30.76
2023-05-05T14:54:27.432Z,30.73
2023-05-05T14:56:57.979Z,29.81
2023-05-05T14:59:28.186Z,30.16
2023-05-05T15:01:57.875Z,30.09
2023-05-05T15:04:26.769Z,29.71
2023-05-05T15:06:55.457Z,29.55
2023-05-05T15:09:23.655Z,29.42
2023-05-05T15:11:51.961Z,29.50
2023-05-05T15:14:20.641Z,29.72
2023-05-05T15:16:49.152Z,28.92
2023-05-05T15:19:17.270Z,29.36
2023-05-05T15:21:45.821Z,28.74
2023-05-05T15:24:14.402Z,28.54
2023-05-05T15:26:42.544Z,28.83
2023-05-05T15:29:11.170Z,27.69
2023-05-05T15:31:39.752Z,27.60
2023-05-05T15:34:08.381Z,27.34
2023-05-05T15:36:37.155Z,27.77
2023-05-05T15:39:05.215Z,27.06
2023-05-05T15:41:35.464Z,26.55
2023-05-05T15:44:05.852Z,25.97
2023-05-05T15:46:34.912Z,25.77
2023-05-05T15:49:03.611Z,25.41
2023-05-05T15:51:33.630Z,25.26
2023-05-05T15:54:02.319Z,24.42
2023-05-05T15:56:32.051Z,24.19
2023-05-05T15:59:00.762Z,23.91
2023-05-05T16:01:29.653Z,23.29
2023-05-05T16:04:00.148Z,22.94
2023-05-05T16:06:30.410Z,22.39
2023-05-05T16:08:59.831Z,22.24
2023-05-05T16:11:28.908Z,22.00
2023-05-05T16:13:57.528Z,21.93
2023-05-05T16:16:25.796Z,21.37
2023-05-05T16:18:54.295Z,20.80
2023-05-05T16:21:22.867Z,20.99
2023-05-05T16:23:51.490Z,20.93
2023-05-05T16:26:20.091Z,21.27
2023-05-05T16:28:48.731Z,20.11
2023-05-05T16:31:17.343Z,20.32
2023-05-05T16:33:46.073Z,19.61
2023-05-05T16:36:14.796Z,19.63
2023-05-05T16:38:44.445Z,19.42
2023-05-05T16:41:13.145Z,20.15
2023-05-05T16:43:42.259Z,20.28
2023-05-05T16:46:10.853Z,20.39
2023-05-05T16:48:39.499Z,19.96
2023-05-05T16:51:09.183Z,20.35
2023-05-05T16:53:37.755Z,19.65
2023-05-05T16:56:06.664Z,19.84
2023-05-05T16:58:35.650Z,19.35
2023-05-05T17:01:05.479Z,19.85
2023-05-05T17:03:34.098Z,19.86
2023-05-05T17:06:02.684Z,19.41
2023-05-05T17:08:30.645Z,19.63
2023-05-05T17:10:59.872Z,19.83
2023-05-05T17:13:28.490Z,19.48
2023-05-05T17:15:58.855Z,19.42
2023-05-05T17:18:27.730Z,19.29
2023-05-05T17:20:55.870Z,18.34
2023-05-05T17:23:24.690Z,18.53
2023-05-05T17:25:52.879Z,18.71
2023-05-05T17:28:21.745Z,18.04
2023-05-05T17:30:49.873Z,18.45
2023-05-05T17:33:22.205Z,18.79
2023-05-05T17:35:50.561Z,18.38
2023-05-05T17:38:19.146Z,18.43
2023-05-05T17:40:48.094Z,18.31
2023-05-05T17:43:16.463Z,18.33
2023-05-05T17:45:45.569Z,18.02
2023-05-05T17:48:14.193Z,18.62
2023-05-05T17:50:44.939Z,18.40
2023-05-05T17:53:13.698Z,18.22
2023-05-05T17:55:46.613Z,18.10
2023-05-05T17:58:15.304Z,18.03
2023-05-05T18:00:44.388Z,18.07
2023-05-05T18:03:13.156Z,18.27
2023-05-05T18:05:41.959Z,18.82
2023-05-05T18:08:10.655Z,18.20
2023-05-05T18:10:39.309Z,18.16
2023-05-05T18:13:08.004Z,17.89
2023-05-05T18:15:36.793Z,17.80
2023-05-05T18:18:05.604Z,17.77
2023-05-05T18:20:34.233Z,17.60
2023-05-05T18:23:02.881Z,18.27
2023-05-05T18:25:31.190Z,18.37
2023-05-05T18:27:59.849Z,18.12
2023-05-05T18:30:28.542Z,17.35
2023-05-05T18:32:57.891Z,17.33
2023-05-05T18:35:26.829Z,17.53
2023-05-05T18:37:56.462Z,18.06
2023-05-05T18:40:25.132Z,17.19
2023-05-05T18:42:53.981Z,16.77
2023-05-05T18:45:22.261Z,17.10
2023-05-05T18:47:50.844Z,17.98
2023-05-05T18:50:19.427Z,17.38
2023-05-05T18:52:48.034Z,17.74
2023-05-05T18:55:16.180Z,16.86
2023-05-05T18:57:44.441Z,16.45
2023-05-05T19:00:14.250Z,16.18
2023-05-05T19:02:42.882Z,16.25
2023-05-05T19:05:11.894Z,16.01
2023-05-05T19:07:42.312Z,15.96
2023-05-05T19:10:11.732Z,16.31
2023-05-05T19:12:40.016Z,16.98
2023-05-05T19:15:09.336Z,16.94
2023-05-05T19:17:38.365Z,16.64
2023-05-05T19:20:07.704Z,16.47
2023-05-05T19:22:36.364Z,16.76
2023-05-05T19:25:05.351Z,16.37
2023-05-05T19:27:34.859Z,16.67
2023-05-05T19:30:03.455Z,16.87
2023-05-05T19:32:31.737Z,17.23
2023-05-05T19:35:00.553Z,16.86
2023-05-05T19:37:29.444Z,17.05
2023-05-05T19:39:58.113Z,17.05
2023-05-05T19:42:27.512Z,17.43
2023-05-05T19:44:56.210Z,16.98
2023-05-05T19:47:25.008Z,16.91
2023-05-05T19:49:53.673Z,16.97
2023-05-05T19:52:24.997Z,17.04
2023-05-05T19:54:54.213Z,16.90
2023-05-05T19:57:22.368Z,16.81
2023-05-05T19:59:51.263Z,17.14
2023-05-05T20:02:21.500Z,16.93
2023-05-05T20:04:50.968Z,16.57
2023-05-05T20:07:20.086Z,16.34
2023-05-05T20:09:48.253Z,16.35
2023-05-05T20:12:18.901Z,16.31
2023-05-05T20:14:48.217Z,16.06
2023-05-05T20:17:19.025Z,16.50
2023-05-05T20:19:49.121Z,16.43
2023-05-05T20:22:17.113Z,16.22
2023-05-05T20:24:45.767Z,16.06
2023-05-05T20:27:14.379Z,16.31
2023-05-05T20:29:42.965Z,16.69
2023-05-05T20:32:11.525Z,17.16
2023-05-05T20:34:40.689Z,16.77
2023-05-05T20:37:10.061Z,16.48
2023-05-05T20:39:39.679Z,16.73
2023-05-05T20:42:08.194Z,16.59
2023-05-05T20:44:36.724Z,16.70
2023-05-05T20:47:05.950Z,17.35
2023-05-05T20:49:34.718Z,16.83
2023-05-05T20:52:03.543Z,16.59
2023-05-05T20:54:35.039Z,16.62
2023-05-05T20:57:05.050Z,17.13
2023-05-05T20:59:33.697Z,16.75
2023-05-05T21:02:02.500Z,17.01
2023-05-05T21:04:31.280Z,17.46
2023-05-05T21:06:59.811Z,17.59
2023-05-05T21:09:28.452Z,17.95
2023-05-05T21:11:56.635Z,17.96
2023-05-05T21:14:25.284Z,18.31
2023-05-05T21:16:53.716Z,18.11
2023-05-05T21:19:22.541Z,18.09
2023-05-05T21:21:51.368Z,18.17
2023-05-05T21:24:19.931Z,18.52
2023-05-05T21:26:48.579Z,18.50
2023-05-05T21:29:17.219Z,18.65
2023-05-05T21:31:45.416Z,18.64
2023-05-05T21:34:14.051Z,18.73
2023-05-05T21:36:42.581Z,18.75
2023-05-05T21:39:11.575Z,18.52
2023-05-05T21:41:40.199Z,19.22
2023-05-05T21:44:08.830Z,19.24
2023-05-05T21:46:37.511Z,19.28
2023-05-05T21:49:15.211Z,19.84
2023-05-05T21:51:44.812Z,19.41
2023-05-05T21:54:13.973Z,19.49
2023-05-05T21:56:42.614Z,19.20
2023-05-05T21:59:11.563Z,19.50
2023-05-05T22:01:40.701Z,19.13
2023-05-05T22:04:09.968Z,19.33
2023-05-05T22:06:38.554Z,19.47
2023-05-05T22:09:07.087Z,19.38
2023-05-05T22:11:35.727Z,19.54
2023-05-05T22:14:04.331Z,19.12
2023-05-05T22:16:33.018Z,18.98
2023-05-05T22:19:01.597Z,19.27
2023-05-05T22:21:30.153Z,19.47
2023-05-05T22:23:59.144Z,19.18
2023-05-05T22:26:27.712Z,19.17
2023-05-05T22:28:56.360Z,19.19
2023-05-05T22:31:24.598Z,19.30
2023-05-05T22:33:53.277Z,19.50
2023-05-05T22:36:21.452Z,19.19
2023-05-05T22:38:49.564Z,19.23
2023-05-05T22:41:18.496Z,19.43
2023-05-05T22:43:47.070Z,19.30
2023-05-05T22:46:16.383Z,18.59
2023-05-05T22:48:44.924Z,18.58
2023-05-05T22:51:13.569Z,18.98
2023-05-05T22:53:42.401Z,19.13
2023-05-05T22:56:10.752Z,19.22
2023-05-05T22:58:39.609Z,19.54
2023-05-05T23:01:09.057Z,19.49
2023-05-05T23:03:37.570Z,19.23
2023-05-05T23:06:06.311Z,19.60
2023-05-05T23:08:34.552Z,19.42
2023-05-05T23:11:03.204Z,19.80
2023-05-05T23:13:31.868Z,20.05
2023-05-05T23:16:00.488Z,20.01
2023-05-05T23:18:29.020Z,19.56
2023-05-05T23:20:57.605Z,19.56
2023-05-05T23:23:29.193Z,19.61
2023-05-05T23:25:57.780Z,19.70
2023-05-05T23:28:26.568Z,19.82
2023-05-05T23:30:54.538Z,19.88
2023-05-05T23:33:22.905Z,19.98
2023-05-05T23:35:51.619Z,19.83
2023-05-05T23:38:20.180Z,20.03
2023-05-05T23:40:48.805Z,19.54
2023-05-05T23:43:16.860Z,19.53
2023-05-05T23:45:45.174Z,19.88
2023-05-05T23:48:13.765Z,19.44
2023-05-05T23:50:42.608Z,19.42
2023-05-05T23:53:11.902Z,19.70
2023-05-05T23:55:40.495Z,20.18
2023-05-05T23:58:09.124Z,19.88
